createdAt,value
2017-09-13T00:00:03.366Z,1003.55
2017-09-13T00:00:43.926Z,1003.53
2017-09-13T00:01:24.499Z,1003.51
2017-09-13T00:02:05.077Z,1003.51
2017-09-13T00:02:45.639Z,1003.54
2017-09-13T00:03:26.213Z,1003.54
2017-09-13T00:04:06.776Z,1003.56
2017-09-13T00:04:47.331Z,1003.51
2017-09-13T00:05:27.895Z,1003.52
2017-09-13T00:06:08.452Z,1003.57
2017-09-13T00:06:49.032Z,1003.55
2017-09-13T00:07:29.587Z,1003.58
2017-09-13T00:08:10.167Z,1003.57
2017-09-13T00:08:50.763Z,1003.55
2017-09-13T00:09:31.320Z,1003.56
2017-09-13T00:10:11.893Z,1003.53
2017-09-13T00:10:52.479Z,1003.53
2017-09-13T00:11:33.038Z,1003.55
2017-09-13T00:12:13.589Z,1003.55
2017-09-13T00:12:54.148Z,1003.53
2017-09-13T00:13:34.718Z,1003.54
2017-09-13T00:14:15.297Z,1003.55
2017-09-13T00:14:55.869Z,1003.56
2017-09-13T00:15:36.443Z,1003.61
2017-09-13T00:16:17.001Z,1003.56
2017-09-13T00:16:57.578Z,1003.54
2017-09-13T00:17:38.146Z,1003.53
2017-09-13T00:18:18.708Z,1003.56
2017-09-13T00:18:59.293Z,1003.56
2017-09-13T00:19:39.844Z,1003.53
2017-09-13T00:20:20.399Z,1003.55
2017-09-13T00:21:00.985Z,1003.55
2017-09-13T00:21:41.543Z,1003.5
2017-09-13T00:22:22.115Z,1003.5
2017-09-13T00:23:02.674Z,1003.53
2017-09-13T00:23:43.241Z,1003.53
2017-09-13T00:24:23.806Z,1003.51
2017-09-13T00:25:04.363Z,1003.45
2017-09-13T00:25:44.948Z,1003.43
2017-09-13T00:26:25.516Z,1003.5
2017-09-13T00:27:06.084Z,1003.45
2017-09-13T00:27:46.660Z,1003.42
2017-09-13T00:28:27.213Z,1003.44
2017-09-13T00:29:07.766Z,1003.42
2017-09-13T00:29:48.345Z,1003.42
2017-09-13T00:30:28.931Z,1003.43
2017-09-13T00:31:09.515Z,1003.41
2017-09-13T00:31:50.082Z,1003.4
2017-09-13T00:32:30.650Z,1003.37
2017-09-13T00:33:11.242Z,1003.33
2017-09-13T00:33:51.802Z,1003.34
2017-09-13T00:34:32.375Z,1003.32
2017-09-13T00:35:12.954Z,1003.34
2017-09-13T00:35:53.513Z,1003.32
2017-09-13T00:36:34.094Z,1003.33
2017-09-13T00:37:14.699Z,1003.29
2017-09-13T00:37:55.255Z,1003.27
2017-09-13T00:38:35.829Z,1003.25
2017-09-13T00:39:16.399Z,1003.25
2017-09-13T00:39:56.976Z,1003.27
2017-09-13T00:40:37.553Z,1003.26
2017-09-13T00:41:18.124Z,1003.26
2017-09-13T00:41:58.697Z,1003.27
2017-09-13T00:42:39.279Z,1003.29
2017-09-13T00:43:19.851Z,1003.22
2017-09-13T00:44:00.410Z,1003.21
2017-09-13T00:44:40.995Z,1003.2
2017-09-13T00:45:21.548Z,1003.17
2017-09-13T00:46:02.127Z,1003.16
2017-09-13T00:46:42.710Z,1003.16
2017-09-13T00:47:23.264Z,1003.2
2017-09-13T00:48:03.841Z,1003.24
2017-09-13T00:48:44.397Z,1003.22
2017-09-13T00:49:24.959Z,1003.25
2017-09-13T00:50:05.521Z,1003.23
2017-09-13T00:50:46.077Z,1003.17
2017-09-13T00:51:26.708Z,1003.15
2017-09-13T00:52:07.289Z,1003.1
2017-09-13T00:52:47.851Z,1003.09
2017-09-13T00:53:28.444Z,1003.1
2017-09-13T00:54:09.058Z,1003.05
2017-09-13T00:54:49.607Z,1003.08
2017-09-13T00:55:30.227Z,1003.07
2017-09-13T00:56:10.792Z,1003.09
2017-09-13T00:56:51.369Z,1003.06
2017-09-13T00:57:31.961Z,1003.03
2017-09-13T00:58:12.543Z,1003.01
2017-09-13T00:58:53.102Z,1003.07
2017-09-13T00:59:33.665Z,1003.07
2017-09-13T01:00:14.225Z,1003.06
2017-09-13T01:00:54.813Z,1003.05
2017-09-13T01:01:35.420Z,1003.03
2017-09-13T01:02:15.993Z,1003.09
2017-09-13T01:02:56.582Z,1003.09
2017-09-13T01:03:37.150Z,1003.1
2017-09-13T01:04:17.733Z,1003.08
2017-09-13T01:04:58.306Z,1003.09
2017-09-13T01:05:38.890Z,1003.06
2017-09-13T01:06:19.454Z,1003.06
2017-09-13T01:07:00.028Z,1003.09
2017-09-13T01:07:40.585Z,1003.11
2017-09-13T01:08:21.152Z,1003.1
2017-09-13T01:09:01.749Z,1003.1
2017-09-13T01:09:42.321Z,1003.11
2017-09-13T01:10:22.878Z,1003.1
2017-09-13T01:11:03.459Z,1003.09
2017-09-13T01:11:44.038Z,1003.14
2017-09-13T01:12:24.596Z,1003.1
2017-09-13T01:13:05.172Z,1003.15
2017-09-13T01:13:45.788Z,1003.15
2017-09-13T01:14:26.353Z,1003.14
2017-09-13T01:15:06.941Z,1003.14
2017-09-13T01:15:47.513Z,1003.14
2017-09-13T01:16:28.090Z,1003.17
2017-09-13T01:17:08.671Z,1003.12
2017-09-13T01:17:49.271Z,1003.12
2017-09-13T01:18:29.849Z,1003.13
2017-09-13T01:19:10.409Z,1003.12
2017-09-13T01:19:50.972Z,1003.14
2017-09-13T01:20:31.522Z,1003.16
2017-09-13T01:21:12.092Z,1003.17
2017-09-13T01:21:52.665Z,1003.13
2017-09-13T01:22:33.238Z,1003.11
2017-09-13T01:23:13.793Z,1003.08
2017-09-13T01:23:54.363Z,1003.11
2017-09-13T01:24:34.959Z,1003.06
2017-09-13T01:25:15.539Z,1003.06
2017-09-13T01:25:56.111Z,1003.07
2017-09-13T01:26:36.682Z,1003.07
2017-09-13T01:27:17.236Z,1003.08
2017-09-13T01:27:57.798Z,1003.01
2017-09-13T01:28:38.378Z,1003.02
2017-09-13T01:29:18.966Z,1003
2017-09-13T01:29:59.565Z,1003.06
2017-09-13T01:30:40.119Z,1003.04
2017-09-13T01:31:20.727Z,1003.04
2017-09-13T01:32:01.306Z,1003.02
2017-09-13T01:32:41.870Z,1003.01
2017-09-13T01:33:22.443Z,1002.96
2017-09-13T01:34:03.018Z,1002.99
2017-09-13T01:34:43.671Z,1002.92
2017-09-13T01:35:24.237Z,1002.95
2017-09-13T01:36:04.799Z,1002.92
2017-09-13T01:36:45.371Z,1002.86
2017-09-13T01:37:25.933Z,1002.87
2017-09-13T01:38:06.493Z,1002.85
2017-09-13T01:38:47.146Z,1002.81
2017-09-13T01:39:27.744Z,1002.86
2017-09-13T01:40:08.329Z,1002.82
2017-09-13T01:40:48.904Z,1002.8
2017-09-13T01:41:29.485Z,1002.78
2017-09-13T01:42:10.047Z,1002.82
2017-09-13T01:42:50.617Z,1002.78
2017-09-13T01:43:31.177Z,1002.78
2017-09-13T01:44:11.735Z,1002.78
2017-09-13T01:44:52.327Z,1002.75
2017-09-13T01:45:32.886Z,1002.71
2017-09-13T01:46:13.455Z,1002.7
2017-09-13T01:46:54.014Z,1002.75
2017-09-13T01:47:34.607Z,1002.69
2017-09-13T01:48:15.163Z,1002.69
2017-09-13T01:48:55.725Z,1002.68
2017-09-13T01:49:36.285Z,1002.64
2017-09-13T01:50:16.864Z,1002.68
2017-09-13T01:50:57.438Z,1002.68
2017-09-13T01:51:38.067Z,1002.72
2017-09-13T01:52:18.645Z,1002.7
2017-09-13T01:52:59.216Z,1002.72
2017-09-13T01:53:39.778Z,1002.76
2017-09-13T01:54:20.345Z,1002.74
2017-09-13T01:55:00.895Z,1002.74
2017-09-13T01:55:41.460Z,1002.72
2017-09-13T01:56:22.052Z,1002.74
2017-09-13T01:57:02.612Z,1002.7
2017-09-13T01:57:43.190Z,1002.7
2017-09-13T01:58:23.789Z,1002.67
2017-09-13T01:59:04.345Z,1002.69
2017-09-13T01:59:44.932Z,1002.7
2017-09-13T02:00:25.521Z,1002.68
2017-09-13T02:01:06.075Z,1002.71
2017-09-13T02:01:46.644Z,1002.72
2017-09-13T02:02:27.200Z,1002.74
2017-09-13T02:03:07.766Z,1002.73
2017-09-13T02:03:48.339Z,1002.73
2017-09-13T02:04:28.903Z,1002.74
2017-09-13T02:05:09.465Z,1002.7
2017-09-13T02:05:50.041Z,1002.68
2017-09-13T02:06:30.637Z,1002.73
2017-09-13T02:07:11.166Z,1002.68
2017-09-13T02:07:51.753Z,1002.68
2017-09-13T02:08:32.327Z,1002.68
2017-09-13T02:09:12.893Z,1002.61
2017-09-13T02:09:53.454Z,1002.58
2017-09-13T02:10:34.021Z,1002.62
2017-09-13T02:11:14.598Z,1002.57
2017-09-13T02:11:55.155Z,1002.58
2017-09-13T02:12:35.720Z,1002.56
2017-09-13T02:13:16.310Z,1002.57
2017-09-13T02:13:56.867Z,1002.6
2017-09-13T02:14:37.444Z,1002.54
2017-09-13T02:15:18.003Z,1002.6
2017-09-13T02:15:58.569Z,1002.6
2017-09-13T02:16:39.132Z,1002.59
2017-09-13T02:17:19.697Z,1002.64
2017-09-13T02:18:00.255Z,1002.59
2017-09-13T02:18:40.833Z,1002.6
2017-09-13T02:19:21.397Z,1002.57
2017-09-13T02:20:01.969Z,1002.55
2017-09-13T02:20:42.540Z,1002.52
2017-09-13T02:21:23.110Z,1002.49
2017-09-13T02:22:03.664Z,1002.5
2017-09-13T02:22:44.264Z,1002.49
2017-09-13T02:23:24.825Z,1002.43
2017-09-13T02:24:05.408Z,1002.41
2017-09-13T02:24:45.977Z,1002.4
2017-09-13T02:25:26.550Z,1002.42
2017-09-13T02:26:07.120Z,1002.37
2017-09-13T02:26:47.682Z,1002.4
2017-09-13T02:27:28.247Z,1002.4
2017-09-13T02:28:08.802Z,1002.35
2017-09-13T02:28:49.370Z,1002.34
2017-09-13T02:29:29.925Z,1002.34
2017-09-13T02:30:10.487Z,1002.36
2017-09-13T02:30:51.067Z,1002.33
2017-09-13T02:31:31.621Z,1002.34
2017-09-13T02:32:12.214Z,1002.29
2017-09-13T02:32:52.807Z,1002.27
2017-09-13T02:33:33.347Z,1002.22
2017-09-13T02:34:13.905Z,1002.2
2017-09-13T02:34:54.464Z,1002.2
2017-09-13T02:35:35.056Z,1002.21
2017-09-13T02:36:15.619Z,1002.2
2017-09-13T02:36:56.167Z,1002.23
2017-09-13T02:37:36.739Z,1002.21
2017-09-13T02:38:17.293Z,1002.21
2017-09-13T02:38:57.859Z,1002.17
2017-09-13T02:39:38.451Z,1002.15
2017-09-13T02:40:19.018Z,1002.16
2017-09-13T02:40:59.569Z,1002.16
2017-09-13T02:41:40.201Z,1002.15
2017-09-13T02:42:20.765Z,1002.16
2017-09-13T02:43:01.314Z,1002.17
2017-09-13T02:43:41.876Z,1002.16
2017-09-13T02:44:22.456Z,1002.23
2017-09-13T02:45:03.025Z,1002.17
2017-09-13T02:45:43.592Z,1002.18
2017-09-13T02:46:24.162Z,1002.17
2017-09-13T02:47:04.722Z,1002.19
2017-09-13T02:47:45.282Z,1002.19
2017-09-13T02:48:25.845Z,1002.19
2017-09-13T02:49:06.406Z,1002.17
2017-09-13T02:49:46.985Z,1002.18
2017-09-13T02:50:27.565Z,1002.12
2017-09-13T02:51:08.159Z,1002.11
2017-09-13T02:51:48.735Z,1002.12
2017-09-13T02:52:29.311Z,1002.03
2017-09-13T02:53:09.875Z,1002.04
2017-09-13T02:53:50.446Z,1001.97
2017-09-13T02:54:31.015Z,1001.97
2017-09-13T02:55:11.566Z,1001.96
2017-09-13T02:55:52.132Z,1001.96
2017-09-13T02:56:32.684Z,1001.86
2017-09-13T02:57:13.322Z,1001.91
2017-09-13T02:57:53.905Z,1001.85
2017-09-13T02:58:34.468Z,1001.87
2017-09-13T02:59:15.029Z,1001.84
2017-09-13T02:59:55.594Z,1001.79
2017-09-13T03:00:36.151Z,1001.77
2017-09-13T03:01:16.719Z,1001.77
2017-09-13T03:01:57.275Z,1001.75
2017-09-13T03:02:37.855Z,1001.65
2017-09-13T03:03:18.429Z,1001.69
2017-09-13T03:03:58.997Z,1001.62
2017-09-13T03:04:39.575Z,1001.66
2017-09-13T03:05:20.135Z,1001.66
2017-09-13T03:06:00.726Z,1001.7
2017-09-13T03:06:41.294Z,1001.7
2017-09-13T03:07:21.848Z,1001.71
2017-09-13T03:08:02.410Z,1001.75
2017-09-13T03:08:43.059Z,1001.74
2017-09-13T03:09:23.621Z,1001.8
2017-09-13T03:10:04.173Z,1001.82
2017-09-13T03:10:44.730Z,1001.82
2017-09-13T03:11:25.299Z,1001.84
2017-09-13T03:12:05.892Z,1001.85
2017-09-13T03:12:46.468Z,1001.86
2017-09-13T03:13:27.034Z,1001.84
2017-09-13T03:14:07.609Z,1001.84
2017-09-13T03:14:48.181Z,1001.86
2017-09-13T03:15:28.770Z,1001.78
2017-09-13T03:16:09.350Z,1001.79
2017-09-13T03:16:49.914Z,1001.75
2017-09-13T03:17:30.506Z,1001.72
2017-09-13T03:18:11.068Z,1001.7
2017-09-13T03:18:51.652Z,1001.66
2017-09-13T03:19:32.231Z,1001.66
2017-09-13T03:20:12.795Z,1001.67
2017-09-13T03:20:53.366Z,1001.6
2017-09-13T03:21:33.919Z,1001.6
2017-09-13T03:22:14.503Z,1001.58
2017-09-13T03:22:55.062Z,1001.5
2017-09-13T03:23:35.634Z,1001.48
2017-09-13T03:24:16.185Z,1001.53
2017-09-13T03:24:56.765Z,1001.52
2017-09-13T03:25:37.336Z,1001.46
2017-09-13T03:26:17.886Z,1001.47
2017-09-13T03:26:58.469Z,1001.41
2017-09-13T03:27:39.032Z,1001.38
2017-09-13T03:28:19.588Z,1001.35
2017-09-13T03:29:00.173Z,1001.36
2017-09-13T03:29:40.786Z,1001.31
2017-09-13T03:30:21.363Z,1001.27
2017-09-13T03:31:01.922Z,1001.3
2017-09-13T03:31:42.503Z,1001.28
2017-09-13T03:32:23.077Z,1001.27
2017-09-13T03:33:03.662Z,1001.28
2017-09-13T03:33:44.220Z,1001.22
2017-09-13T03:34:24.776Z,1001.26
2017-09-13T03:35:05.327Z,1001.23
2017-09-13T03:35:45.890Z,1001.2
2017-09-13T03:36:26.458Z,1001.12
2017-09-13T03:37:07.017Z,1001.13
2017-09-13T03:37:47.587Z,1001.13
2017-09-13T03:38:28.161Z,1001.12
2017-09-13T03:39:08.783Z,1001.12
2017-09-13T03:39:49.347Z,1001.16
2017-09-13T03:40:29.902Z,1001.24
2017-09-13T03:41:10.489Z,1001.2
2017-09-13T03:41:51.077Z,1001.24
2017-09-13T03:42:31.633Z,1001.21
2017-09-13T03:43:12.198Z,1001.23
2017-09-13T03:43:52.756Z,1001.21
2017-09-13T03:44:33.324Z,1001.24
2017-09-13T03:45:13.896Z,1001.24
2017-09-13T03:45:54.462Z,1001.22
2017-09-13T03:46:35.037Z,1001.25
2017-09-13T03:47:15.597Z,1001.24
2017-09-13T03:47:56.150Z,1001.18
2017-09-13T03:48:36.732Z,1001.17
2017-09-13T03:49:17.312Z,1001.19
2017-09-13T03:49:57.924Z,1001.18
2017-09-13T03:50:38.484Z,1001.17
2017-09-13T03:51:19.054Z,1001.18
2017-09-13T03:51:59.608Z,1001.15
2017-09-13T03:52:40.182Z,1001.12
2017-09-13T03:53:20.725Z,1001.09
2017-09-13T03:54:01.284Z,1001.06
2017-09-13T03:54:41.849Z,1001.02
2017-09-13T03:55:22.422Z,1000.97
2017-09-13T03:56:03.007Z,1000.99
2017-09-13T03:56:43.584Z,1000.99
2017-09-13T03:57:24.154Z,1000.93
2017-09-13T03:58:04.722Z,1000.91
2017-09-13T03:58:45.325Z,1000.9
2017-09-13T03:59:25.839Z,1000.92
2017-09-13T04:00:06.420Z,1000.86
2017-09-13T04:00:46.963Z,1000.9
2017-09-13T04:01:27.531Z,1000.89
2017-09-13T04:02:08.096Z,1000.9
2017-09-13T04:02:48.654Z,1000.83
2017-09-13T04:03:29.225Z,1000.87
2017-09-13T04:04:09.787Z,1000.83
2017-09-13T04:04:50.343Z,1000.86
2017-09-13T04:05:30.901Z,1000.81
2017-09-13T04:06:11.477Z,1000.84
2017-09-13T04:06:52.055Z,1000.83
2017-09-13T04:07:32.621Z,1000.8
2017-09-13T04:08:13.176Z,1000.84
2017-09-13T04:08:53.753Z,1000.89
2017-09-13T04:09:34.307Z,1000.89
2017-09-13T04:10:14.866Z,1000.92
2017-09-13T04:10:55.432Z,1000.91
2017-09-13T04:11:36.004Z,1000.92
2017-09-13T04:12:16.602Z,1000.89
2017-09-13T04:12:57.157Z,1000.92
2017-09-13T04:13:37.720Z,1000.94
2017-09-13T04:14:18.294Z,1000.91
2017-09-13T04:14:58.865Z,1000.95
2017-09-13T04:15:39.438Z,1000.99
2017-09-13T04:16:19.995Z,1000.89
2017-09-13T04:17:00.555Z,1000.85
2017-09-13T04:17:41.117Z,1000.82
2017-09-13T04:18:21.702Z,1000.81
2017-09-13T04:19:02.284Z,1000.74
2017-09-13T04:19:42.836Z,1000.69
2017-09-13T04:20:23.390Z,1000.72
2017-09-13T04:21:03.970Z,1000.64
2017-09-13T04:21:44.545Z,1000.61
2017-09-13T04:22:25.109Z,1000.67
2017-09-13T04:23:05.689Z,1000.64
2017-09-13T04:23:46.268Z,1000.7
2017-09-13T04:24:26.851Z,1000.72
2017-09-13T04:25:07.425Z,1000.72
2017-09-13T04:25:47.985Z,1000.73
2017-09-13T04:26:28.544Z,1000.76
2017-09-13T04:27:09.100Z,1000.74
2017-09-13T04:27:49.655Z,1000.73
2017-09-13T04:28:30.222Z,1000.74
2017-09-13T04:29:10.807Z,1000.67
2017-09-13T04:29:51.375Z,1000.7
2017-09-13T04:30:31.940Z,1000.65
2017-09-13T04:31:12.533Z,1000.65
2017-09-13T04:31:54.073Z,1000.67
2017-09-13T04:32:34.646Z,1000.63
2017-09-13T04:33:15.210Z,1000.59
2017-09-13T04:33:55.779Z,1000.59
2017-09-13T04:34:36.333Z,1000.59
2017-09-13T04:35:16.913Z,1000.52
2017-09-13T04:35:57.468Z,1000.58
2017-09-13T04:36:38.055Z,1000.55
2017-09-13T04:37:18.615Z,1000.49
2017-09-13T04:37:59.189Z,1000.45
2017-09-13T04:38:39.774Z,1000.44
2017-09-13T04:39:20.342Z,1000.38
2017-09-13T04:40:00.926Z,1000.37
2017-09-13T04:40:41.499Z,1000.34
2017-09-13T04:41:22.068Z,1000.34
2017-09-13T04:42:02.702Z,1000.35
2017-09-13T04:42:43.845Z,1000.32
2017-09-13T04:43:24.231Z,1000.35
2017-09-13T04:44:04.810Z,1000.4
2017-09-13T04:44:45.422Z,1000.4
2017-09-13T04:45:26.066Z,1000.4
2017-09-13T04:46:06.690Z,1000.33
2017-09-13T04:46:47.569Z,1000.33
2017-09-13T04:47:28.139Z,1000.36
2017-09-13T04:48:08.710Z,1000.37
2017-09-13T04:48:51.038Z,1000.36
2017-09-13T04:49:31.595Z,1000.4
2017-09-13T04:50:12.151Z,1000.39
2017-09-13T04:50:52.765Z,1000.4
2017-09-13T04:51:33.331Z,1000.35
2017-09-13T04:52:13.912Z,1000.3
2017-09-13T04:52:54.516Z,1000.26
2017-09-13T04:53:35.134Z,1000.26
2017-09-13T04:54:15.792Z,1000.19
2017-09-13T04:54:56.830Z,1000.19
2017-09-13T04:55:37.828Z,1000.19
2017-09-13T04:56:18.483Z,1000.17
2017-09-13T04:56:59.371Z,1000.14
2017-09-13T04:57:40.120Z,1000.13
2017-09-13T04:58:21.047Z,1000.05
2017-09-13T04:59:01.520Z,1000.04
2017-09-13T04:59:42.325Z,1000.03
2017-09-13T05:00:23.209Z,1000.01
2017-09-13T05:01:03.806Z,999.94
2017-09-13T05:01:44.436Z,999.93
2017-09-13T05:02:25.260Z,999.93
2017-09-13T05:03:05.842Z,999.95
2017-09-13T05:03:46.436Z,999.91
2017-09-13T05:04:27.011Z,999.89
2017-09-13T05:05:07.570Z,999.9
2017-09-13T05:05:48.142Z,999.87
2017-09-13T05:06:28.702Z,999.89
2017-09-13T05:07:09.258Z,999.89
2017-09-13T05:07:49.827Z,999.88
2017-09-13T05:08:30.416Z,999.87
2017-09-13T05:09:10.996Z,999.87
2017-09-13T05:09:51.590Z,999.86
2017-09-13T05:10:32.145Z,999.81
2017-09-13T05:11:12.717Z,999.8
2017-09-13T05:11:53.278Z,999.85
2017-09-13T05:12:33.861Z,999.78
2017-09-13T05:13:14.449Z,999.8
2017-09-13T05:13:55.032Z,999.77
2017-09-13T05:14:35.587Z,999.79
2017-09-13T05:15:16.202Z,999.74
2017-09-13T05:15:56.758Z,999.71
2017-09-13T05:16:37.308Z,999.67
2017-09-13T05:17:17.873Z,999.65
2017-09-13T05:17:58.576Z,999.61
2017-09-13T05:18:39.772Z,999.61
2017-09-13T05:19:20.376Z,999.54
2017-09-13T05:20:00.934Z,999.48
2017-09-13T05:20:41.502Z,999.46
2017-09-13T05:21:22.060Z,999.46
2017-09-13T05:22:02.622Z,999.51
2017-09-13T05:22:43.181Z,999.52
2017-09-13T05:23:23.739Z,999.51
2017-09-13T05:24:04.303Z,999.54
2017-09-13T05:24:44.859Z,999.51
2017-09-13T05:25:25.447Z,999.49
2017-09-13T05:26:06.023Z,999.47
2017-09-13T05:26:46.585Z,999.48
2017-09-13T05:27:27.151Z,999.47
2017-09-13T05:28:07.712Z,999.45
2017-09-13T05:28:48.279Z,999.39
2017-09-13T05:29:28.839Z,999.35
2017-09-13T05:30:09.570Z,999.43
2017-09-13T05:30:50.217Z,999.42
2017-09-13T05:31:30.854Z,999.37
2017-09-13T05:32:11.411Z,999.35
2017-09-13T05:32:52.043Z,999.4
2017-09-13T05:33:32.750Z,999.35
2017-09-13T05:34:13.333Z,999.39
2017-09-13T05:34:53.891Z,999.38
2017-09-13T05:35:35.184Z,999.35
2017-09-13T05:36:15.756Z,999.38
2017-09-13T05:36:56.497Z,999.38
2017-09-13T05:37:37.138Z,999.38
2017-09-13T05:38:17.818Z,999.4
2017-09-13T05:38:58.405Z,999.39
2017-09-13T05:39:38.978Z,999.28
2017-09-13T05:40:19.724Z,999.33
2017-09-13T05:41:00.521Z,999.3
2017-09-13T05:41:41.086Z,999.23
2017-09-13T05:42:21.674Z,999.21
2017-09-13T05:43:02.231Z,999.17
2017-09-13T05:43:42.786Z,999.17
2017-09-13T05:44:23.452Z,999.13
2017-09-13T05:45:04.305Z,999.18
2017-09-13T05:45:44.741Z,999.16
2017-09-13T05:46:25.305Z,999.13
2017-09-13T05:47:05.888Z,999.16
2017-09-13T05:47:46.462Z,999.19
2017-09-13T05:48:27.041Z,999.09
2017-09-13T05:49:07.611Z,999.12
2017-09-13T05:49:48.178Z,999.18
2017-09-13T05:50:28.767Z,999.17
2017-09-13T05:51:09.321Z,999.17
2017-09-13T05:51:49.886Z,999.13
2017-09-13T05:52:30.446Z,999.11
2017-09-13T05:53:10.999Z,999.05
2017-09-13T05:53:51.564Z,999.08
2017-09-13T05:54:32.124Z,999.05
2017-09-13T05:55:12.688Z,999.07
2017-09-13T05:55:53.260Z,999.09
2017-09-13T05:56:33.826Z,999.06
2017-09-13T05:57:14.384Z,999.04
2017-09-13T05:57:54.963Z,998.99
2017-09-13T05:58:35.520Z,998.99
2017-09-13T05:59:16.086Z,998.94
2017-09-13T05:59:56.648Z,998.92
2017-09-13T06:00:37.214Z,998.87
2017-09-13T06:01:17.810Z,998.88
2017-09-13T06:01:58.378Z,998.84
2017-09-13T06:02:38.944Z,998.81
2017-09-13T06:03:19.525Z,998.79
2017-09-13T06:04:00.071Z,998.72
2017-09-13T06:04:40.664Z,998.72
2017-09-13T06:05:21.240Z,998.68
2017-09-13T06:06:01.804Z,998.66
2017-09-13T06:06:42.389Z,998.6
2017-09-13T06:07:22.995Z,998.65
2017-09-13T06:08:03.574Z,998.58
2017-09-13T06:08:44.185Z,998.58
2017-09-13T06:09:24.760Z,998.54
2017-09-13T06:10:05.324Z,998.54
2017-09-13T06:10:45.887Z,998.47
2017-09-13T06:11:26.453Z,998.55
2017-09-13T06:12:07.015Z,998.51
2017-09-13T06:12:47.585Z,998.52
2017-09-13T06:13:28.159Z,998.44
2017-09-13T06:14:08.738Z,998.48
2017-09-13T06:14:49.303Z,998.46
2017-09-13T06:15:29.868Z,998.49
2017-09-13T06:16:10.430Z,998.48
2017-09-13T06:16:51.017Z,998.42
2017-09-13T06:17:31.596Z,998.41
2017-09-13T06:18:12.156Z,998.38
2017-09-13T06:18:52.730Z,998.35
2017-09-13T06:19:33.573Z,998.34
2017-09-13T06:20:14.495Z,998.29
2017-09-13T06:20:55.155Z,998.31
2017-09-13T06:21:35.888Z,998.3
2017-09-13T06:22:16.451Z,998.31
2017-09-13T06:22:57.017Z,998.3
2017-09-13T06:23:37.921Z,998.32
2017-09-13T06:24:18.727Z,998.26
2017-09-13T06:24:59.703Z,998.21
2017-09-13T06:25:40.545Z,998.22
2017-09-13T06:26:21.212Z,998.3
2017-09-13T06:27:02.523Z,998.27
2017-09-13T06:27:43.463Z,998.25
2017-09-13T06:28:24.126Z,998.23
2017-09-13T06:29:04.683Z,998.24
2017-09-13T06:29:45.273Z,998.22
2017-09-13T06:30:25.985Z,998.19
2017-09-13T06:31:06.550Z,998.22
2017-09-13T06:31:47.262Z,998.17
2017-09-13T06:32:27.940Z,998.21
2017-09-13T06:33:08.519Z,998.23
2017-09-13T06:33:49.137Z,998.22
2017-09-13T06:34:29.804Z,998.21
2017-09-13T06:35:10.375Z,998.15
2017-09-13T06:35:51.025Z,998.13
2017-09-13T06:36:31.727Z,998.13
2017-09-13T06:37:12.311Z,998.11
2017-09-13T06:37:52.885Z,998.09
2017-09-13T06:38:33.874Z,998.08
2017-09-13T06:39:14.617Z,998.1
2017-09-13T06:39:55.678Z,998.12
2017-09-13T06:40:36.388Z,998.11
2017-09-13T06:41:16.969Z,998.11
2017-09-13T06:41:57.554Z,998.05
2017-09-13T06:42:41.977Z,998.14
2017-09-13T06:43:25.286Z,998.15
2017-09-13T06:44:06.246Z,998.19
2017-09-13T06:44:47.398Z,998.15
2017-09-13T06:45:28.856Z,998.2
2017-09-13T06:46:09.446Z,998.11
2017-09-13T06:46:50.566Z,998.18
2017-09-13T06:47:31.660Z,998.18
2017-09-13T06:48:12.272Z,998.18
2017-09-13T06:48:52.831Z,998.13
2017-09-13T06:49:33.482Z,998.13
2017-09-13T06:50:14.193Z,998.12
2017-09-13T06:50:54.765Z,998.1
2017-09-13T06:51:35.423Z,998.12
2017-09-13T06:52:16.067Z,998.12
2017-09-13T06:52:56.646Z,998.09
2017-09-13T06:53:37.335Z,998.1
2017-09-13T06:54:18.049Z,998.08
2017-09-13T06:54:58.792Z,998.06
2017-09-13T06:55:39.360Z,998.07
2017-09-13T06:56:19.981Z,998.02
2017-09-13T06:57:00.584Z,998.05
2017-09-13T06:57:41.186Z,998.04
2017-09-13T06:58:21.966Z,997.98
2017-09-13T06:59:02.741Z,997.96
2017-09-13T06:59:43.383Z,997.92
2017-09-13T07:00:23.974Z,997.95
2017-09-13T07:01:04.534Z,997.88
2017-09-13T07:01:45.108Z,997.86
2017-09-13T07:02:25.685Z,997.93
2017-09-13T07:03:06.243Z,997.81
2017-09-13T07:03:46.805Z,997.81
2017-09-13T07:04:27.434Z,997.76
2017-09-13T07:05:07.991Z,997.73
2017-09-13T07:05:48.570Z,997.67
2017-09-13T07:06:29.147Z,997.65
2017-09-13T07:07:09.710Z,997.62
2017-09-13T07:10:04.463Z,997.53
2017-09-13T07:10:45.010Z,997.56
2017-09-13T07:11:25.595Z,997.52
2017-09-13T07:12:06.178Z,997.54
2017-09-13T07:12:46.886Z,997.51
2017-09-13T07:13:27.458Z,997.48
2017-09-13T07:14:08.041Z,997.49
2017-09-13T07:14:48.655Z,997.42
2017-09-13T07:15:29.264Z,997.49
2017-09-13T07:16:09.863Z,997.48
2017-09-13T07:16:50.655Z,997.55
2017-09-13T07:17:31.530Z,997.52
2017-09-13T07:18:12.087Z,997.54
2017-09-13T07:18:52.651Z,997.51
2017-09-13T07:19:33.221Z,997.52
2017-09-13T07:20:13.855Z,997.45
2017-09-13T07:20:54.476Z,997.51
2017-09-13T07:21:35.024Z,997.53
2017-09-13T07:22:15.603Z,997.48
2017-09-13T07:22:56.162Z,997.5
2017-09-13T07:23:36.719Z,997.46
2017-09-13T07:24:17.276Z,997.47
2017-09-13T07:24:57.836Z,997.44
2017-09-13T07:25:38.399Z,997.35
2017-09-13T07:26:18.981Z,997.4
2017-09-13T07:26:59.524Z,997.33
2017-09-13T07:27:40.098Z,997.36
2017-09-13T07:28:20.661Z,997.28
2017-09-13T07:29:01.248Z,997.29
2017-09-13T07:29:41.830Z,997.23
2017-09-13T07:30:22.392Z,997.23
2017-09-13T07:31:02.996Z,997.18
2017-09-13T07:31:43.556Z,997.15
2017-09-13T07:32:24.127Z,997.16
2017-09-13T07:33:04.721Z,997.08
2017-09-13T07:33:45.313Z,997.02
2017-09-13T07:34:25.875Z,997
2017-09-13T07:35:06.442Z,997.03
2017-09-13T07:35:47.051Z,997.07
2017-09-13T07:36:27.609Z,997.03
2017-09-13T07:37:08.183Z,996.97
2017-09-13T07:37:48.737Z,996.98
2017-09-13T07:38:29.283Z,997.04
2017-09-13T07:39:09.834Z,997.04
2017-09-13T07:39:50.411Z,996.99
2017-09-13T07:40:30.975Z,997
2017-09-13T07:41:11.542Z,996.99
2017-09-13T07:41:52.098Z,996.94
2017-09-13T07:42:32.650Z,996.91
2017-09-13T07:43:13.203Z,996.93
2017-09-13T07:43:53.786Z,996.89
2017-09-13T07:44:34.356Z,996.86
2017-09-13T07:45:14.909Z,996.82
2017-09-13T07:45:55.494Z,996.83
2017-09-13T07:46:36.069Z,996.82
2017-09-13T07:47:16.628Z,996.79
2017-09-13T07:47:57.183Z,996.79
2017-09-13T07:48:37.770Z,996.73
2017-09-13T07:49:18.322Z,996.74
2017-09-13T07:49:58.904Z,996.77
2017-09-13T07:50:39.462Z,996.78
2017-09-13T07:51:20.022Z,996.73
2017-09-13T07:52:00.632Z,996.72
2017-09-13T07:52:41.236Z,996.69
2017-09-13T07:53:22.675Z,996.68
2017-09-13T07:54:03.660Z,996.72
2017-09-13T07:54:44.832Z,996.64
2017-09-13T07:55:26.252Z,996.6
2017-09-13T07:56:07.198Z,996.64
2017-09-13T07:56:47.767Z,996.58
2017-09-13T07:57:28.329Z,996.56
2017-09-13T07:58:08.895Z,996.58
2017-09-13T07:58:49.493Z,996.54
2017-09-13T07:59:30.057Z,996.56
2017-09-13T08:00:10.622Z,996.49
2017-09-13T08:00:51.225Z,996.35
2017-09-13T08:01:31.836Z,996.33
2017-09-13T08:02:12.405Z,996.23
2017-09-13T08:02:52.964Z,996.23
2017-09-13T08:03:33.519Z,996.19
2017-09-13T08:04:14.114Z,996.21
2017-09-13T08:04:54.673Z,996.17
2017-09-13T08:05:35.227Z,996.24
2017-09-13T08:06:15.842Z,996.2
2017-09-13T08:06:56.373Z,996.2
2017-09-13T08:07:36.952Z,996.14
2017-09-13T08:08:17.500Z,996.1
2017-09-13T08:08:58.088Z,996.16
2017-09-13T08:09:38.658Z,996.06
2017-09-13T08:10:19.208Z,996.1
2017-09-13T08:11:00.360Z,996.05
2017-09-13T08:11:40.929Z,996.07
2017-09-13T08:12:21.491Z,996
2017-09-13T08:13:02.055Z,996
2017-09-13T08:13:42.648Z,996.07
2017-09-13T08:14:23.212Z,996
2017-09-13T08:15:03.780Z,995.96
2017-09-13T08:15:44.340Z,996
2017-09-13T08:16:24.898Z,995.98
2017-09-13T08:17:05.717Z,995.9
2017-09-13T08:17:46.281Z,995.9
2017-09-13T08:18:26.844Z,995.86
2017-09-13T08:19:07.412Z,995.89
2017-09-13T08:19:47.980Z,995.84
2017-09-13T08:20:28.559Z,995.83
2017-09-13T08:21:09.135Z,995.81